Time;durP1;ratioP1;P1;durP2;ratioP2;P2;SDS_P1;SDS_P2;PMS_P1;PMS_P2;Temp;Humidity;BMP_temperature;BMP_pressure;BME280_temperature;BME280_humidity;BME280_pressure;Samples;Min_cycle;Max_cycle;Signal;HPM_P1;HPM_P2
2023/05/11 00:00:35;;;;;;;14.83;6.67;;;;;;;42.37;36.44;100924.66;5031105;28;20420;-81
2023/05/11 00:03:01;;;;;;;17.20;8.07;;;;;;;42.38;36.58;100922.72;5031386;28;20454;-81
2023/05/11 00:05:27;;;;;;;13.87;5.43;;;;;;;42.45;36.28;100905.81;5031408;28;20211;-80
2023/05/11 00:07:53;;;;;;;12.30;5.43;;;;;;;42.56;36.25;100918.69;5039371;28;20998;-81
2023/05/11 00:10:19;;;;;;;18.13;5.00;;;;;;;42.37;36.13;100893.84;5051045;28;20486;-78
2023/05/11 00:12:45;;;;;;;18.13;5.30;;;;;;;42.41;36.00;100911.13;5027916;28;20463;-79
2023/05/11 00:15:11;;;;;;;14.83;5.03;;;;;;;42.44;35.61;100893.31;5031290;28;20886;-79
2023/05/11 00:17:37;;;;;;;13.43;4.80;;;;;;;42.35;36.52;100891.44;5031488;28;20514;-78
2023/05/11 00:20:03;;;;;;;12.90;5.77;;;;;;;42.35;36.67;100893.38;5031059;28;20191;-79
2023/05/11 00:22:30;;;;;;;10.27;5.80;;;;;;;42.35;36.88;100886.00;5031125;28;20295;-79
2023/05/11 00:24:56;;;;;;;18.13;4.57;;;;;;;42.40;36.90;100883.06;5031291;28;20455;-79
2023/05/11 00:27:21;;;;;;;15.50;4.37;;;;;;;42.49;36.71;100876.72;5031052;28;20854;-79
2023/05/11 00:29:47;;;;;;;14.03;5.30;;;;;;;42.46;36.83;100885.56;5031105;28;20185;-78
2023/05/11 00:32:13;;;;;;;16.17;5.17;;;;;;;42.25;37.02;100866.56;5031091;28;20205;-78
2023/05/11 00:34:42;;;;;;;13.70;4.03;;;;;;;42.21;36.94;100871.88;5030775;28;20215;-78
2023/05/11 00:37:08;;;;;;;15.50;5.03;;;;;;;42.35;37.14;100863.38;5030805;28;20951;-79
2023/05/11 00:39:39;;;;;;;12.67;6.50;;;;;;;42.20;37.36;100851.22;5032917;28;20485;-80
2023/05/11 00:42:06;;;;;;;13.93;5.83;;;;;;;42.16;36.45;100854.91;5030839;28;20467;-80
2023/05/11 00:44:32;;;;;;;17.47;5.13;;;;;;;42.16;35.89;100844.81;5032364;28;20424;-79
2023/05/11 00:46:58;;;;;;;11.30;4.30;;;;;;;42.19;35.69;100840.66;5030434;28;20427;-79
2023/05/11 00:49:24;;;;;;;11.40;5.00;;;;;;;42.21;35.94;100833.72;5029180;28;20436;-79
2023/05/11 00:51:50;;;;;;;12.40;4.87;;;;;;;42.35;36.30;100836.13;5029783;28;20481;-79
2023/05/11 00:54:17;;;;;;;16.80;5.40;;;;;;;42.18;36.43;100844.50;5031035;28;20535;-79
2023/05/11 00:56:43;;;;;;;29.27;5.07;;;;;;;42.26;36.90;100841.69;5032083;28;20419;-79
2023/05/11 00:59:10;;;;;;;16.40;5.90;;;;;;;42.10;36.52;100832.50;5030791;28;20945;-79
2023/05/11 01:01:38;;;;;;;14.23;4.27;;;;;;;42.18;35.80;100828.94;5030771;28;20447;-78
2023/05/11 01:04:04;;;;;;;15.23;5.30;;;;;;;42.25;35.36;100829.19;5030611;28;20546;-79
2023/05/11 01:07:01;;;;;;;13.03;3.63;;;;;;;42.11;36.11;100832.19;5028370;28;20416;-78
2023/05/11 01:09:42;;;;;;;20.63;6.90;;;;;;;42.13;36.69;100831.84;5027755;28;20955;-78
2023/05/11 01:12:11;;;;;;;14.20;4.13;;;;;;;42.34;36.11;100832.59;5030129;28;20467;-79
2023/05/11 01:14:46;;;;;;;12.10;4.03;;;;;;;42.16;36.32;100827.66;5030143;28;20416;-78
2023/05/11 01:17:23;;;;;;;14.97;4.00;;;;;;;42.25;36.32;100812.84;5030343;28;20462;-78
2023/05/11 01:20:06;;;;;;;12.53;4.53;;;;;;;42.29;36.55;100811.00;5030693;28;20419;-78
2023/05/11 01:22:50;;;;;;;17.00;5.10;;;;;;;42.31;36.72;100814.22;5030198;28;20463;-79
2023/05/11 01:26:03;;;;;;;13.70;5.40;;;;;;;42.48;36.59;100812.41;5030313;28;20431;-79
2023/05/11 01:28:39;;;;;;;14.27;5.40;;;;;;;42.16;36.11;100803.13;5024165;28;20447;-78
2023/05/11 01:31:10;;;;;;;11.60;3.87;;;;;;;42.27;35.94;100796.94;5030517;28;20453;-78
2023/05/11 01:33:46;;;;;;;10.53;3.73;;;;;;;42.31;36.01;100786.94;5030528;28;20959;-78
2023/05/11 01:36:15;;;;;;;13.87;5.23;;;;;;;42.33;35.94;100781.94;5030156;28;20871;-79
2023/05/11 01:38:45;;;;;;;18.63;4.40;;;;;;;42.45;35.96;100791.28;5030052;28;20428;-79
2023/05/11 01:41:17;;;;;;;14.00;4.67;;;;;;;42.34;35.95;100766.38;5031845;28;20425;-78
2023/05/11 01:43:54;;;;;;;9.90;4.47;;;;;;;42.29;35.68;100761.13;5030100;28;20838;-79
2023/05/11 01:46:26;;;;;;;15.77;4.40;;;;;;;42.29;35.97;100782.94;5031543;28;20423;-79
2023/05/11 01:48:56;;;;;;;15.80;5.73;;;;;;;42.35;35.82;100779.66;5021942;28;20457;-79
2023/05/11 01:51:29;;;;;;;15.73;5.20;;;;;;;42.44;35.80;100770.59;5033762;28;20986;-79
2023/05/11 01:53:57;;;;;;;14.60;3.77;;;;;;;42.49;35.95;100771.16;5034250;28;20427;-79
2023/05/11 01:56:25;;;;;;;16.47;5.57;;;;;;;42.38;36.37;100772.75;5033105;28;20473;-78
2023/05/11 01:58:54;;;;;;;16.50;4.27;;;;;;;42.42;36.18;100770.13;5033656;28;20431;-79
2023/05/11 02:01:21;;;;;;;30.10;5.27;;;;;;;42.35;35.93;100771.47;5033389;28;20808;-78
2023/05/11 02:03:48;;;;;;;10.03;3.77;;;;;;;42.25;35.80;100796.47;5033417;28;20467;-78
2023/05/11 02:06:16;;;;;;;14.90;5.33;;;;;;;42.25;35.90;100774.66;5033679;28;20430;-81
2023/05/11 02:08:44;;;;;;;11.20;3.93;;;;;;;42.11;35.85;100774.97;5035209;28;20427;-81
2023/05/11 02:11:12;;;;;;;14.37;4.63;;;;;;;42.11;36.07;100774.13;5031825;28;20431;-79
2023/05/11 02:13:42;;;;;;;13.17;5.70;;;;;;;42.14;36.35;100776.19;5033076;28;20921;-79
2023/05/11 02:16:09;;;;;;;23.90;5.30;;;;;;;42.17;36.32;100775.53;5033456;28;20427;-79
2023/05/11 02:18:39;;;;;;;21.07;6.40;;;;;;;42.21;36.48;100759.31;5033595;28;20514;-79
2023/05/11 02:21:08;;;;;;;10.47;4.53;;;;;;;42.01;36.65;100763.69;5033266;28;20454;-79
2023/05/11 02:23:36;;;;;;;13.83;4.07;;;;;;;42.21;36.46;100770.22;5033532;28;20490;-78
2023/05/11 02:26:04;;;;;;;16.73;5.47;;;;;;;42.21;36.31;100768.28;5032976;28;20429;-78
2023/05/11 02:28:30;;;;;;;15.10;6.70;;;;;;;42.03;36.41;100767.66;5033327;28;20431;-78
2023/05/11 02:31:00;;;;;;;10.40;3.93;;;;;;;42.18;36.49;100779.88;5033266;28;20455;-79
2023/05/11 02:33:32;;;;;;;20.47;4.87;;;;;;;42.27;36.40;100768.88;5032763;28;20514;-78
2023/05/11 02:35:58;;;;;;;20.40;5.40;;;;;;;42.40;36.25;100768.53;5033219;28;20443;-79
2023/05/11 02:38:31;;;;;;;14.30;4.90;;;;;;;42.39;35.93;100756.03;5032883;28;20435;-78
2023/05/11 02:41:00;;;;;;;12.80;5.07;;;;;;;42.29;36.10;100755.69;5033474;28;20435;-79
2023/05/11 02:43:32;;;;;;;11.63;5.30;;;;;;;42.29;35.65;100756.47;5032860;28;21015;-79
2023/05/11 02:46:02;;;;;;;11.43;4.40;;;;;;;42.40;35.75;100767.75;5032905;28;20432;-78
2023/05/11 02:48:31;;;;;;;11.93;5.43;;;;;;;42.35;35.86;100762.50;5032247;28;20423;-79
2023/05/11 02:51:01;;;;;;;18.43;6.23;;;;;;;42.34;36.03;100761.72;5033082;28;20419;-79
2023/05/11 02:53:29;;;;;;;9.17;4.37;;;;;;;42.36;35.93;100756.75;5032306;28;20420;-79
2023/05/11 02:55:56;;;;;;;19.93;5.53;;;;;;;42.34;36.15;100760.91;5034346;28;20433;-79
2023/05/11 02:58:22;;;;;;;9.47;4.10;;;;;;;42.33;36.26;100771.03;5031944;28;20910;-79
2023/05/11 03:00:49;;;;;;;11.97;5.23;;;;;;;42.30;36.32;100773.66;5032687;28;20862;-79
2023/05/11 03:03:15;;;;;;;22.73;5.97;;;;;;;42.37;36.19;100763.78;5032407;28;20550;-79
2023/05/11 03:05:41;;;;;;;14.67;5.13;;;;;;;42.29;36.04;100766.59;5034011;28;20463;-79
2023/05/11 03:08:07;;;;;;;13.93;4.00;;;;;;;42.34;35.80;100772.63;5031401;28;20529;-78
2023/05/11 03:10:33;;;;;;;16.13;5.13;;;;;;;42.28;36.06;100765.00;5032721;28;20189;-79
2023/05/11 03:12:59;;;;;;;13.20;4.43;;;;;;;42.21;35.70;100770.22;5032205;28;20473;-79
2023/05/11 03:15:26;;;;;;;10.30;4.80;;;;;;;42.26;35.47;100778.19;5032375;28;20424;-78
2023/05/11 03:17:54;;;;;;;14.50;4.50;;;;;;;42.40;35.51;100775.91;5032123;28;20428;-78
2023/05/11 03:20:21;;;;;;;10.33;3.70;;;;;;;42.46;35.45;100779.22;5032434;28;20458;-79
2023/05/11 03:22:48;;;;;;;13.30;5.07;;;;;;;42.47;35.27;100775.34;5032197;28;20455;-78
2023/05/11 03:25:16;;;;;;;22.87;5.03;;;;;;;42.43;35.58;100779.91;5032476;28;20431;-79
2023/05/11 03:27:44;;;;;;;11.00;4.20;;;;;;;42.29;35.95;100772.84;5032505;28;20943;-79
2023/05/11 03:30:14;;;;;;;14.20;5.23;;;;;;;42.37;35.86;100771.97;5033464;28;20419;-79
2023/05/11 03:32:40;;;;;;;9.60;4.70;;;;;;;42.29;35.85;100778.28;5019905;28;20451;-79
2023/05/11 03:35:07;;;;;;;7.80;3.70;;;;;;;42.44;35.06;100787.75;5032080;28;20436;-79
2023/05/11 03:37:38;;;;;;;10.13;4.63;;;;;;;42.28;35.38;100793.06;5031800;28;20463;-79
2023/05/11 03:40:08;;;;;;;17.70;5.00;;;;;;;42.44;35.21;100789.69;5025767;28;20473;-79
2023/05/11 03:42:37;;;;;;;9.77;4.17;;;;;;;42.52;35.57;100795.03;5031932;28;20455;-79
2023/05/11 03:45:06;;;;;;;13.53;5.77;;;;;;;42.45;35.51;100800.25;5031656;28;20442;-79
2023/05/11 03:47:33;;;;;;;12.30;4.90;;;;;;;42.37;35.63;100812.06;5030883;28;20452;-81
2023/05/11 03:50:01;;;;;;;15.60;4.50;;;;;;;42.22;36.13;100810.75;5031345;28;20425;-81
2023/05/11 03:52:28;;;;;;;16.37;6.17;;;;;;;42.30;35.98;100807.16;5031957;28;20435;-79
2023/05/11 03:54:54;;;;;;;13.63;5.50;;;;;;;42.19;36.54;100803.28;5031679;28;20435;-79
2023/05/11 03:57:20;;;;;;;19.03;5.43;;;;;;;42.35;35.78;100815.09;5033162;28;20458;-81
2023/05/11 03:59:46;;;;;;;12.17;5.07;;;;;;;42.02;36.08;100823.28;5031356;28;20475;-81
2023/05/11 04:02:12;;;;;;;21.53;3.93;;;;;;;42.31;36.46;100821.59;5031595;28;20466;-82
2023/05/11 04:04:38;;;;;;;9.13;4.63;;;;;;;42.33;36.03;100819.31;5030890;28;20448;-81
2023/05/11 04:07:04;;;;;;;13.27;4.87;;;;;;;42.28;36.44;100812.13;5031366;28;20436;-81
2023/05/11 04:09:30;;;;;;;9.40;4.50;;;;;;;42.39;36.13;100831.59;5030257;28;20205;-79
2023/05/11 04:11:56;;;;;;;10.83;4.90;;;;;;;42.09;36.52;100828.19;5031048;28;20516;-79
2023/05/11 04:14:22;;;;;;;19.53;5.70;;;;;;;42.26;36.73;100836.22;5031148;28;20247;-79
2023/05/11 04:16:48;;;;;;;16.33;4.87;;;;;;;42.20;36.30;100839.50;5031239;28;20455;-81
2023/05/11 04:19:15;;;;;;;15.27;5.10;;;;;;;42.35;35.92;100836.91;5030926;28;21005;-81
2023/05/11 04:21:41;;;;;;;13.50;5.70;;;;;;;42.31;35.78;100832.50;5032843;28;20173;-80
2023/05/11 04:24:07;;;;;;;11.13;6.20;;;;;;;42.32;35.90;100834.88;5031005;28;20513;-79
2023/05/11 04:26:33;;;;;;;11.20;4.77;;;;;;;42.31;35.76;100836.03;5028625;28;20476;-78
2023/05/11 04:28:59;;;;;;;13.93;3.60;;;;;;;42.39;35.64;100835.13;5028688;28;20428;-79
2023/05/11 04:31:25;;;;;;;11.43;4.83;;;;;;;42.36;36.11;100833.09;5031596;28;20262;-81
2023/05/11 04:33:51;;;;;;;23.47;6.73;;;;;;;42.25;35.90;100836.56;5030411;28;20181;-81
2023/05/11 04:36:17;;;;;;;16.80;4.67;;;;;;;42.31;35.99;100846.13;5031040;28;20677;-79
2023/05/11 04:38:43;;;;;;;14.43;5.27;;;;;;;42.28;35.74;100839.41;5030935;28;20427;-79
2023/05/11 04:41:08;;;;;;;11.30;4.70;;;;;;;42.33;35.88;100855.56;5031070;28;20419;-81
2023/05/11 04:43:34;;;;;;;17.00;5.10;;;;;;;42.07;36.08;100846.81;5030774;28;20205;-81
2023/05/11 04:46:00;;;;;;;15.50;4.73;;;;;;;42.18;35.77;100833.59;5031098;28;20238;-79
2023/05/11 04:48:26;;;;;;;13.93;4.80;;;;;;;42.25;35.78;100861.09;5028996;28;20176;-79
2023/05/11 04:50:56;;;;;;;8.20;3.40;;;;;;;42.32;35.89;100861.34;5031565;28;20803;-78
2023/05/11 04:53:22;;;;;;;17.47;5.77;;;;;;;42.34;36.28;100861.78;5030590;28;20446;-79
2023/05/11 04:55:48;;;;;;;14.50;5.83;;;;;;;42.39;36.29;100865.09;5030825;28;20811;-78
2023/05/11 04:58:14;;;;;;;11.23;4.37;;;;;;;42.18;36.73;100869.03;5030477;28;20810;-79
2023/05/11 05:00:40;;;;;;;8.90;3.93;;;;;;;42.10;36.53;100867.94;5030613;28;20958;-79
2023/05/11 05:03:06;;;;;;;12.03;3.47;;;;;;;42.29;36.68;100873.72;5030385;28;20462;-80
2023/05/11 05:05:32;;;;;;;10.77;6.50;;;;;;;41.99;37.12;100861.31;5030682;28;20427;-79
2023/05/11 05:07:58;;;;;;;12.93;4.73;;;;;;;42.24;36.43;100868.50;5030502;28;20419;-78
2023/05/11 05:10:24;;;;;;;19.77;7.50;;;;;;;42.24;36.51;100873.16;5030688;28;20423;-79
2023/05/11 05:12:50;;;;;;;11.10;6.50;;;;;;;42.27;36.42;100875.97;5017513;28;20482;-78
2023/05/11 05:15:17;;;;;;;10.87;3.90;;;;;;;42.22;36.35;100876.19;5030797;28;20431;-81
2023/05/11 05:17:42;;;;;;;12.00;5.20;;;;;;;42.29;36.66;100879.16;5030316;28;20951;-79
2023/05/11 05:20:09;;;;;;;14.00;5.60;;;;;;;42.35;36.09;100882.47;5028896;28;20480;-79
2023/05/11 05:22:35;;;;;;;11.40;4.20;;;;;;;42.36;36.41;100886.81;5033874;28;20292;-79
2023/05/11 05:25:01;;;;;;;11.23;5.03;;;;;;;42.39;35.91;100892.38;5034505;28;20521;-79
2023/05/11 05:27:27;;;;;;;21.87;4.60;;;;;;;42.42;35.31;100898.28;5034521;28;20419;-79
2023/05/11 05:29:52;;;;;;;11.40;3.97;;;;;;;42.40;35.29;100896.69;5034184;28;20185;-79
2023/05/11 05:32:18;;;;;;;13.40;4.90;;;;;;;42.14;36.00;100893.41;5035557;28;20435;-79
2023/05/11 05:34:45;;;;;;;11.70;4.63;;;;;;;42.20;35.61;100903.00;5034610;28;20506;-79
2023/05/11 05:37:12;;;;;;;17.93;5.40;;;;;;;42.22;35.73;100910.84;5034142;28;20239;-79
2023/05/11 05:39:38;;;;;;;16.63;6.10;;;;;;;42.00;36.42;100906.53;5034170;28;20880;-79
2023/05/11 05:42:04;;;;;;;15.73;4.70;;;;;;;42.25;35.89;100910.97;5034087;28;20997;-79
2023/05/11 05:44:30;;;;;;;15.73;4.27;;;;;;;42.23;35.99;100909.69;5034046;28;20539;-79
2023/05/11 05:46:56;;;;;;;20.13;7.13;;;;;;;42.13;36.19;100911.69;5033886;28;20515;-78
2023/05/11 05:49:22;;;;;;;13.27;5.00;;;;;;;42.37;35.46;100918.41;5034712;28;20521;-83
2023/05/11 05:51:49;;;;;;;12.23;4.90;;;;;;;42.34;35.71;100916.31;5033505;28;20703;-83
2023/05/11 05:54:15;;;;;;;13.70;6.60;;;;;;;42.42;35.94;100918.19;5034608;28;20185;-82
2023/05/11 05:56:41;;;;;;;14.10;8.20;;;;;;;42.35;35.83;100910.53;5033424;28;20454;-82
2023/05/11 05:59:11;;;;;;;16.57;6.57;;;;;;;42.35;35.71;100915.97;5033362;28;20263;-81
2023/05/11 06:01:45;;;;;;;14.80;4.13;;;;;;;42.32;36.18;100905.75;5033512;28;20657;-81
2023/05/11 06:04:14;;;;;;;11.43;4.20;;;;;;;42.51;35.44;100904.44;5033537;28;20463;-83
2023/05/11 06:06:40;;;;;;;11.10;4.50;;;;;;;42.34;36.37;100910.88;5033228;28;20446;-79
2023/05/11 06:09:06;;;;;;;22.33;6.17;;;;;;;42.46;35.97;100918.31;5033466;28;20420;-80
2023/05/11 06:11:32;;;;;;;15.33;4.63;;;;;;;42.58;36.00;100910.19;5033737;28;20435;-80
2023/05/11 06:13:58;;;;;;;14.47;4.70;;;;;;;42.38;35.96;100906.34;5033384;28;21042;-82
2023/05/11 06:16:25;;;;;;;11.90;5.10;;;;;;;42.53;35.24;100904.91;5034756;28;20184;-86
2023/05/11 06:18:51;;;;;;;8.73;4.40;;;;;;;42.51;35.08;100890.81;5033417;28;20189;-82
2023/05/11 06:21:17;;;;;;;14.87;4.37;;;;;;;42.49;35.06;100899.34;5021029;28;20538;-81
2023/05/11 06:23:43;;;;;;;15.87;3.90;;;;;;;42.56;35.53;100907.75;5033575;28;20211;-83
2023/05/11 06:26:10;;;;;;;12.10;4.10;;;;;;;42.52;35.74;100901.38;5034052;28;20193;-79
2023/05/11 06:28:36;;;;;;;20.43;9.40;;;;;;;42.66;35.10;100917.47;5033103;28;21074;-77
2023/05/11 06:31:02;;;;;;;14.20;6.50;;;;;;;42.73;35.21;100923.19;5032619;28;20467;-79
2023/05/11 06:33:28;;;;;;;12.93;4.77;;;;;;;42.45;35.07;100924.88;5031147;28;20250;-76
2023/05/11 06:35:54;;;;;;;13.10;5.00;;;;;;;42.60;35.28;100927.81;5032632;28;20487;-80
2023/05/11 06:38:20;;;;;;;15.10;6.10;;;;;;;42.57;35.31;100938.56;5031969;28;21007;-79
2023/05/11 06:40:51;;;;;;;13.73;4.73;;;;;;;42.49;35.43;100940.25;5032492;28;20423;-84
2023/05/11 06:43:17;;;;;;;17.30;4.60;;;;;;;42.60;35.36;100940.63;5030571;28;21579;-85
2023/05/11 06:45:44;;;;;;;15.37;6.70;;;;;;;42.55;35.29;100943.56;5032815;28;20566;-84
2023/05/11 06:48:10;;;;;;;11.40;4.00;;;;;;;42.57;35.52;100938.56;5033015;28;20192;-84
2023/05/11 06:50:36;;;;;;;15.57;4.23;;;;;;;42.64;35.70;100947.81;5032583;28;20784;-84
2023/05/11 06:53:02;;;;;;;14.50;5.47;;;;;;;42.73;35.52;100950.47;5032511;28;20505;-82
2023/05/11 06:55:29;;;;;;;16.30;4.73;;;;;;;42.64;35.54;100950.53;5032990;28;20523;-83
2023/05/11 06:57:54;;;;;;;12.63;4.13;;;;;;;42.64;36.12;100947.00;5032260;28;20451;-82
2023/05/11 07:00:21;;;;;;;12.27;4.10;;;;;;;42.77;35.61;100956.03;5032623;28;20854;-82
2023/05/11 07:02:46;;;;;;;16.00;4.37;;;;;;;42.63;35.66;100959.84;5029655;28;20684;-82
2023/05/11 07:05:12;;;;;;;18.27;4.37;;;;;;;42.57;35.67;100963.09;5032343;28;20531;-82
2023/05/11 07:07:38;;;;;;;10.33;3.90;;;;;;;42.52;36.24;100961.38;5032125;28;20188;-82
2023/05/11 07:10:05;;;;;;;14.17;4.80;;;;;;;42.65;35.94;100971.22;5032550;28;20424;-85
2023/05/11 07:12:31;;;;;;;14.00;4.00;;;;;;;42.55;36.03;100970.84;5031229;28;20241;-85
2023/05/11 07:14:57;;;;;;;17.40;5.53;;;;;;;42.62;35.88;100977.38;5031904;28;20434;-82
2023/05/11 07:17:23;;;;;;;11.87;4.57;;;;;;;42.54;35.63;100963.75;5032275;28;20443;-82
2023/05/11 07:19:51;;;;;;;12.13;4.70;;;;;;;42.39;35.60;100974.19;5030954;28;20669;-82
2023/05/11 07:22:17;;;;;;;11.87;5.00;;;;;;;42.39;35.59;100974.19;5033256;28;20447;-82
2023/05/11 07:24:43;;;;;;;15.00;7.17;;;;;;;42.55;35.65;100973.56;5032477;28;20959;-82
2023/05/11 07:27:10;;;;;;;14.03;5.00;;;;;;;42.60;34.96;100978.81;5032061;28;20526;-83
2023/05/11 07:29:36;;;;;;;13.43;4.17;;;;;;;42.54;35.94;100988.31;5032262;28;20420;-81
2023/05/11 07:32:02;;;;;;;14.87;5.67;;;;;;;42.57;35.47;100993.13;5018857;28;20453;-82
2023/05/11 07:34:28;;;;;;;14.03;5.03;;;;;;;42.52;35.47;100974.22;5031705;28;20848;-82
2023/05/11 07:36:54;;;;;;;16.03;5.07;;;;;;;42.66;35.56;100988.38;5031800;28;20430;-84
2023/05/11 07:39:20;;;;;;;7.97;3.67;;;;;;;42.68;35.63;100997.03;5031282;28;20542;-85
2023/05/11 07:41:46;;;;;;;15.53;4.97;;;;;;;42.65;35.59;101014.88;5031467;28;20576;-84
2023/05/11 07:44:12;;;;;;;11.00;3.20;;;;;;;42.63;35.33;101008.97;5033125;28;20246;-84
2023/05/11 07:46:38;;;;;;;12.50;3.90;;;;;;;42.63;35.55;101005.44;5031428;28;20505;-83
2023/05/11 07:49:04;;;;;;;13.77;4.23;;;;;;;42.49;36.01;101016.63;5031841;28;20431;-83
2023/05/11 07:51:30;;;;;;;20.17;4.43;;;;;;;42.69;35.87;101025.91;5031414;28;20275;-82
2023/05/11 07:53:55;;;;;;;17.90;5.90;;;;;;;42.77;35.45;101014.13;5032922;28;20450;-84
2023/05/11 07:56:21;;;;;;;15.30;4.90;;;;;;;42.58;35.40;100994.72;5031860;28;20428;-84
2023/05/11 07:58:47;;;;;;;17.67;5.70;;;;;;;42.37;35.44;101020.06;5031797;28;20439;-84
2023/05/11 08:01:13;;;;;;;10.60;4.20;;;;;;;42.55;34.80;101015.28;5030760;28;20189;-83
2023/05/11 08:03:39;;;;;;;17.60;5.07;;;;;;;42.56;34.99;101018.78;5031810;28;20207;-82
2023/05/11 08:06:06;;;;;;;15.27;3.57;;;;;;;42.46;34.98;101011.81;5031035;28;20435;-81
2023/05/11 08:08:32;;;;;;;11.23;4.43;;;;;;;42.60;34.52;101027.91;5031387;28;20185;-82
2023/05/11 08:10:59;;;;;;;34.87;17.60;;;;;;;42.70;34.77;101030.22;5032421;28;20442;-81
2023/05/11 08:13:25;;;;;;;38.87;24.80;;;;;;;42.59;35.01;101026.31;5031405;28;20476;-82
2023/05/11 08:15:51;;;;;;;52.97;31.10;;;;;;;42.72;34.91;101027.97;5030820;28;20434;-82
2023/05/11 08:18:17;;;;;;;43.23;22.47;;;;;;;42.79;34.83;101041.88;5030621;28;20943;-84
2023/05/11 08:20:43;;;;;;;33.73;19.77;;;;;;;42.77;34.82;101027.75;5030732;28;20485;-84
2023/05/11 08:23:09;;;;;;;36.47;15.80;;;;;;;43.02;34.58;101033.31;5031227;28;20462;-84
2023/05/11 08:25:35;;;;;;;36.70;15.23;;;;;;;43.08;34.41;101037.41;5030806;28;20215;-83
2023/05/11 08:28:01;;;;;;;26.53;14.93;;;;;;;42.81;34.81;101049.72;5030976;28;20459;-83
2023/05/11 08:30:27;;;;;;;32.60;12.00;;;;;;;42.79;34.71;101044.59;5030972;28;20423;-82
2023/05/11 08:32:53;;;;;;;27.13;11.67;;;;;;;42.65;34.51;101030.44;5031588;28;20853;-82
2023/05/11 08:35:20;;;;;;;17.40;9.23;;;;;;;42.67;35.17;101036.38;5031198;28;20192;-83
2023/05/11 08:37:45;;;;;;;21.50;8.60;;;;;;;42.83;34.92;101050.16;5031587;28;20192;-85
2023/05/11 08:40:12;;;;;;;8.53;4.27;;;;;;;42.90;35.19;101051.22;5031134;28;20443;-85
2023/05/11 08:42:40;;;;;;;25.10;7.63;;;;;;;43.07;34.85;101052.19;5030634;28;20208;-84
2023/05/11 08:45:07;;;;;;;21.57;7.90;;;;;;;42.95;35.30;101049.41;5030782;28;20432;-84
2023/05/11 08:47:33;;;;;;;27.40;9.27;;;;;;;42.88;35.08;101063.59;5031011;28;20490;-85
2023/05/11 08:49:59;;;;;;;23.10;10.27;;;;;;;42.76;35.35;101047.19;5028407;28;20509;-85
2023/05/11 08:52:26;;;;;;;14.40;5.50;;;;;;;43.00;35.59;101052.75;5030767;28;20443;-85
2023/05/11 08:54:53;;;;;;;20.00;9.07;;;;;;;42.56;35.40;101038.69;5031030;28;20431;-83
2023/05/11 08:57:19;;;;;;;21.07;11.83;;;;;;;42.82;35.17;101054.84;5025963;28;20452;-83
2023/05/11 08:59:45;;;;;;;18.00;7.70;;;;;;;42.77;34.95;101033.22;5027282;28;20427;-83
2023/05/11 09:02:18;;;;;;;23.90;6.37;;;;;;;43.13;34.06;101064.50;5030849;28;20962;-83
2023/05/11 09:04:45;;;;;;;10.40;4.20;;;;;;;42.89;34.96;101066.00;5030576;28;20515;-82
2023/05/11 09:07:15;;;;;;;21.33;7.53;;;;;;;42.84;35.37;101059.94;5030495;28;20436;-83
2023/05/11 09:09:41;;;;;;;11.73;5.10;;;;;;;42.94;34.61;101065.00;5032156;28;20415;-84
2023/05/11 09:12:08;;;;;;;14.97;5.20;;;;;;;42.97;35.07;101064.34;5030752;28;20427;-84
2023/05/11 09:14:34;;;;;;;23.60;7.23;;;;;;;42.84;35.22;101076.31;5030322;28;20498;-83
2023/05/11 09:17:01;;;;;;;12.70;4.23;;;;;;;43.15;34.99;101068.47;5030971;28;20473;-82
2023/05/11 09:19:27;;;;;;;12.63;5.40;;;;;;;42.98;34.65;101065.94;5029078;28;20442;-82
2023/05/11 09:21:53;;;;;;;15.77;6.03;;;;;;;43.17;34.54;101066.22;5030948;28;20423;-84
2023/05/11 09:24:20;;;;;;;14.37;4.67;;;;;;;43.13;34.33;101059.03;5029604;28;20471;-85
2023/05/11 09:26:46;;;;;;;11.80;4.20;;;;;;;43.24;34.79;101064.88;5032356;28;20454;-85
2023/05/11 09:29:12;;;;;;;9.27;3.73;;;;;;;43.11;34.85;101053.13;5031727;28;20439;-85
2023/05/11 09:31:41;;;;;;;13.43;4.97;;;;;;;43.10;35.16;101065.19;5030720;28;21097;-84
2023/05/11 09:34:16;;;;;;;13.13;4.03;;;;;;;43.18;34.63;101061.56;5031719;28;20404;-84
2023/05/11 09:36:44;;;;;;;17.90;5.03;;;;;;;43.30;34.65;101060.78;5030448;28;20426;-83
2023/05/11 09:39:12;;;;;;;14.60;4.57;;;;;;;43.31;35.05;101059.66;5030454;28;20509;-82
2023/05/11 09:41:38;;;;;;;12.37;4.00;;;;;;;43.27;35.37;101061.44;5029889;28;20518;-82
2023/05/11 09:44:09;;;;;;;14.63;5.00;;;;;;;43.05;35.02;101052.56;5030615;28;20983;-82
2023/05/11 09:46:36;;;;;;;12.67;4.10;;;;;;;43.15;35.32;101048.56;5030245;28;20559;-82
2023/05/11 09:49:03;;;;;;;19.20;6.03;;;;;;;43.18;34.89;101047.91;5031989;28;20451;-83
2023/05/11 09:51:31;;;;;;;10.87;3.70;;;;;;;43.14;35.05;101041.53;5030297;28;20521;-83
2023/05/11 09:53:58;;;;;;;8.70;3.63;;;;;;;43.22;35.31;101039.81;5030087;28;20519;-85
2023/05/11 09:56:46;;;;;;;15.80;4.10;;;;;;;43.08;35.27;101040.94;5030104;28;20439;-84
2023/05/11 09:59:14;;;;;;;16.60;4.83;;;;;;;43.06;35.62;101047.88;5031664;28;20538;-84
2023/05/11 10:01:40;;;;;;;14.37;4.87;;;;;;;43.05;35.76;101051.75;5029946;28;20970;-84
2023/05/11 10:04:07;;;;;;;13.73;5.43;;;;;;;43.33;35.36;101043.72;5029808;28;20467;-82
2023/05/11 10:06:44;;;;;;;13.47;6.33;;;;;;;43.18;35.57;101053.38;5030008;28;20423;-82
2023/05/11 10:09:11;;;;;;;13.37;5.47;;;;;;;43.02;35.81;101046.97;5032380;28;20458;-82
2023/05/11 10:11:43;;;;;;;11.50;4.70;;;;;;;42.99;35.55;101058.56;5033612;28;20429;-81
2023/05/11 10:14:11;;;;;;;21.53;7.90;;;;;;;43.13;34.54;101042.66;5033383;28;20470;-82
2023/05/11 10:16:40;;;;;;;14.20;5.10;;;;;;;42.96;35.07;101059.97;5033426;28;20446;-81
2023/05/11 10:19:07;;;;;;;10.47;3.67;;;;;;;42.95;35.08;101065.78;5033251;28;20435;-82
2023/05/11 10:21:34;;;;;;;13.80;5.13;;;;;;;43.28;34.49;101058.41;5033329;28;20431;-82
2023/05/11 10:24:02;;;;;;;12.60;4.30;;;;;;;43.27;34.97;101064.19;5033119;28;21371;-83
2023/05/11 10:26:30;;;;;;;16.83;5.00;;;;;;;43.25;34.30;101058.28;5033019;28;20426;-83
2023/05/11 10:28:59;;;;;;;12.70;4.70;;;;;;;43.12;34.58;101057.44;5034240;28;20446;-81
2023/05/11 10:31:25;;;;;;;11.57;3.83;;;;;;;43.14;33.51;101060.63;5032726;28;20451;-82
2023/05/11 10:33:52;;;;;;;13.90;5.90;;;;;;;43.19;34.14;101052.22;5034447;28;20493;-82
2023/05/11 10:36:20;;;;;;;15.17;5.40;;;;;;;43.33;34.03;101040.97;5033029;28;20428;-85
2023/05/11 10:38:46;;;;;;;17.53;7.20;;;;;;;43.36;33.71;101041.09;5034370;28;20426;-85
2023/05/11 10:41:46;;;;;;;17.20;6.70;;;;;;;43.15;34.39;101041.19;5032851;28;20427;-83
2023/05/11 10:44:27;;;;;;;14.67;5.23;;;;;;;43.41;34.80;101034.66;5018681;28;20464;-83
2023/05/11 10:47:12;;;;;;;20.33;5.83;;;;;;;43.39;34.62;101037.72;5021517;28;20447;-82
2023/05/11 10:50:06;;;;;;;11.43;4.80;;;;;;;43.54;35.30;101032.72;5033031;28;20938;-81
2023/05/11 10:52:50;;;;;;;15.13;4.77;;;;;;;43.68;34.60;101030.44;5023411;28;20466;-85
2023/05/11 10:55:35;;;;;;;16.57;5.57;;;;;;;43.46;34.78;101031.69;5032827;28;20462;-84
2023/05/11 10:58:12;;;;;;;16.30;4.00;;;;;;;43.33;34.99;101027.31;5030997;28;20428;-86
2023/05/11 11:01:07;;;;;;;14.23;5.20;;;;;;;43.42;34.44;101012.47;5032939;28;20439;-82
2023/05/11 11:03:33;;;;;;;15.47;5.00;;;;;;;43.49;34.88;101000.19;5020259;28;20850;-83
2023/05/11 11:05:59;;;;;;;10.97;4.10;;;;;;;43.50;34.99;100996.31;5032839;28;20481;-80
2023/05/11 11:08:25;;;;;;;11.00;4.37;;;;;;;43.47;34.70;101011.44;5032780;28;20525;-81
2023/05/11 11:10:51;;;;;;;13.43;5.40;;;;;;;43.51;34.99;101008.81;5032926;28;20431;-81
2023/05/11 11:13:19;;;;;;;17.07;5.30;;;;;;;43.61;34.93;101000.16;5032487;28;20894;-82
2023/05/11 11:15:56;;;;;;;13.20;5.13;;;;;;;43.56;34.98;101003.13;5032270;28;20536;-81
2023/05/11 11:18:32;;;;;;;17.43;5.37;;;;;;;43.64;34.84;100999.47;5032229;28;20427;-82
2023/05/11 11:20:58;;;;;;;9.40;4.90;;;;;;;43.39;34.95;100994.00;5032394;28;20419;-81